Time;durP1;ratioP1;P1;durP2;ratioP2;P2;SDS_P1;SDS_P2;PMS_P1;PMS_P2;Temp;Humidity;BMP_temperature;BMP_pressure;BME280_temperature;BME280_humidity;BME280_pressure;Samples;Min_cycle;Max_cycle;Signal;HPM_P1;HPM_P2
2021/01/16 00:02:02;;;;;;;12.63;5.07;;;;;;;;;;5021802;28;20112;-61
2021/01/16 00:04:29;;;;;;;12.07;4.78;;;;;;;;;;5017191;28;20046;-62
2021/01/16 00:06:55;;;;;;;13.80;5.90;;;;;;;;;;5021073;28;20042;-61
2021/01/16 00:09:21;;;;;;;11.50;4.68;;;;;;;;;;5019318;28;20057;-61
2021/01/16 00:11:48;;;;;;;13.85;5.13;;;;;;;;;;5021301;28;20044;-61
2021/01/16 00:14:14;;;;;;;17.38;5.60;;;;;;;;;;5021595;28;20085;-60
2021/01/16 00:16:40;;;;;;;16.85;5.32;;;;;;;;;;5017800;28;20045;-62
2021/01/16 00:19:06;;;;;;;12.15;5.38;;;;;;;;;;5022191;28;20048;-61
2021/01/16 00:21:33;;;;;;;14.07;5.15;;;;;;;;;;5017870;28;20077;-61
2021/01/16 00:23:59;;;;;;;19.73;6.88;;;;;;;;;;5020773;28;20061;-61
2021/01/16 00:26:25;;;;;;;17.05;5.90;;;;;;;;;;5019087;28;20522;-61
2021/01/16 00:28:51;;;;;;;15.32;5.57;;;;;;;;;;5021627;28;20033;-61
2021/01/16 00:31:17;;;;;;;13.85;5.82;;;;;;;;;;5016548;28;20033;-62
2021/01/16 00:33:43;;;;;;;22.85;5.82;;;;;;;;;;5021209;28;20049;-61
2021/01/16 00:36:10;;;;;;;15.30;5.00;;;;;;;;;;5016842;28;20048;-61
2021/01/16 00:38:38;;;;;;;15.90;5.55;;;;;;;;;;5021554;28;20038;-61
2021/01/16 00:41:05;;;;;;;14.40;5.38;;;;;;;;;;5016691;28;20135;-61
2021/01/16 00:43:30;;;;;;;16.35;6.15;;;;;;;;;;5021944;28;20053;-61
2021/01/16 00:45:57;;;;;;;11.93;4.80;;;;;;;;;;5017099;28;20029;-61
2021/01/16 00:48:23;;;;;;;13.57;4.85;;;;;;;;;;5020523;28;20120;-61
2021/01/16 00:50:52;;;;;;;13.30;5.57;;;;;;;;;;5022345;28;20072;-60
2021/01/16 00:53:18;;;;;;;12.43;5.10;;;;;;;;;;5019352;28;20045;-61
2021/01/16 00:55:45;;;;;;;17.02;5.95;;;;;;;;;;5023505;28;20081;-60
2021/01/16 00:58:11;;;;;;;12.98;5.57;;;;;;;;;;5019283;28;20041;-61
2021/01/16 01:00:38;;;;;;;15.15;6.05;;;;;;;;;;5021745;28;20033;-61
2021/01/16 01:03:05;;;;;;;14.27;5.40;;;;;;;;;;5017539;28;20057;-60
2021/01/16 01:05:31;;;;;;;15.77;5.50;;;;;;;;;;5022639;28;20057;-61
2021/01/16 01:07:57;;;;;;;15.63;5.70;;;;;;;;;;5016984;28;20145;-61
2021/01/16 01:10:26;;;;;;;14.65;5.55;;;;;;;;;;5021541;28;20038;-61
2021/01/16 01:12:53;;;;;;;19.52;6.45;;;;;;;;;;5016586;28;20033;-61
2021/01/16 01:15:21;;;;;;;16.25;6.32;;;;;;;;;;5038480;28;20037;-61
2021/01/16 01:17:51;;;;;;;13.33;5.37;;;;;;;;;;5017481;28;20049;-61
2021/01/16 01:20:17;;;;;;;14.73;5.53;;;;;;;;;;5021839;28;20283;-61
2021/01/16 01:22:43;;;;;;;12.30;4.82;;;;;;;;;;5017018;28;20048;-61
2021/01/16 01:25:09;;;;;;;15.98;5.82;;;;;;;;;;5020004;28;20046;-61
2021/01/16 01:27:35;;;;;;;16.40;5.72;;;;;;;;;;5018407;28;20115;-61
2021/01/16 01:30:03;;;;;;;14.85;5.75;;;;;;;;;;5020600;28;20049;-61
2021/01/16 01:32:29;;;;;;;13.63;5.03;;;;;;;;;;5020586;28;20192;-61
2021/01/16 01:34:55;;;;;;;16.33;5.53;;;;;;;;;;5018109;28;20061;-61
2021/01/16 01:37:20;;;;;;;21.75;5.65;;;;;;;;;;5019919;28;20041;-61
2021/01/16 01:39:47;;;;;;;15.25;6.20;;;;;;;;;;5017895;28;20052;-62
2021/01/16 01:42:16;;;;;;;18.05;6.28;;;;;;;;;;5020334;28;20038;-62
2021/01/16 01:44:42;;;;;;;15.93;6.40;;;;;;;;;;5017077;28;20037;-60
2021/01/16 01:47:10;;;;;;;14.50;5.95;;;;;;;;;;5021639;28;20038;-60
2021/01/16 01:49:36;;;;;;;14.13;5.38;;;;;;;;;;5016227;28;20045;-61
2021/01/16 01:52:02;;;;;;;13.60;5.13;;;;;;;;;;5019919;28;20132;-61
2021/01/16 01:54:29;;;;;;;13.63;4.90;;;;;;;;;;5010074;28;20048;-61
2021/01/16 01:56:57;;;;;;;11.52;4.53;;;;;;;;;;5004869;28;20042;-60
2021/01/16 01:59:23;;;;;;;;;;;;;;;;;;5005196;28;20046;-61
2021/01/16 02:01:50;;;;;;;12.63;5.05;;;;;;;;;;5030932;28;20006;-61
2021/01/16 02:04:18;;;;;;;17.88;6.07;;;;;;;;;;5020666;28;20056;-62
2021/01/16 02:06:43;;;;;;;14.95;5.25;;;;;;;;;;5023602;28;20049;-61
2021/01/16 02:09:09;;;;;;;17.23;6.25;;;;;;;;;;5020863;28;20046;-61
2021/01/16 02:11:38;;;;;;;14.98;5.22;;;;;;;;;;5024221;28;20049;-61
2021/01/16 02:14:04;;;;;;;16.70;6.20;;;;;;;;;;5023215;28;20038;-61
2021/01/16 02:16:37;;;;;;;16.77;5.93;;;;;;;;;;5021461;28;20033;-61
2021/01/16 02:19:05;;;;;;;15.73;5.88;;;;;;;;;;5024176;28;20041;-62
2021/01/16 02:21:32;;;;;;;16.77;6.15;;;;;;;;;;5023612;28;20041;-62
2021/01/16 02:24:03;;;;;;;16.48;6.00;;;;;;;;;;5024392;28;20037;-61
2021/01/16 02:26:47;;;;;;;15.10;4.68;;;;;;;;;;5017133;28;20092;-61
2021/01/16 02:29:15;;;;;;;15.77;6.28;;;;;;;;;;5002198;28;20034;-62
2021/01/16 02:31:43;;;;;;;16.88;5.57;;;;;;;;;;5014635;28;20041;-61
2021/01/16 02:34:13;;;;;;;20.33;6.38;;;;;;;;;;5022689;28;20171;-61
2021/01/16 02:36:54;;;;;;;18.10;5.55;;;;;;;;;;5020908;28;20057;-61
2021/01/16 02:39:25;;;;;;;15.88;5.18;;;;;;;;;;5024322;28;20041;-61
2021/01/16 02:41:53;;;;;;;14.00;5.63;;;;;;;;;;5019881;28;20037;-61
2021/01/16 02:44:22;;;;;;;14.68;5.20;;;;;;;;;;5024186;28;20042;-60
2021/01/16 02:46:49;;;;;;;26.75;5.75;;;;;;;;;;5018653;28;20068;-60
2021/01/16 02:49:32;;;;;;;20.17;6.50;;;;;;;;;;5024054;28;20049;-61
2021/01/16 02:52:02;;;;;;;17.88;6.15;;;;;;;;;;5019394;28;20131;-61
2021/01/16 02:54:28;;;;;;;17.58;6.13;;;;;;;;;;5022965;28;20078;-61
2021/01/16 02:56:54;;;;;;;17.30;6.10;;;;;;;;;;5019026;28;20065;-61
2021/01/16 02:59:21;;;;;;;15.65;5.63;;;;;;;;;;5023566;28;20086;-61
2021/01/16 03:01:48;;;;;;;16.45;5.68;;;;;;;;;;5018790;28;20045;-61
2021/01/16 03:04:14;;;;;;;12.43;5.38;;;;;;;;;;5022923;28;20042;-61
2021/01/16 03:06:46;;;;;;;19.27;6.68;;;;;;;;;;5017989;28;20129;-61
2021/01/16 03:09:13;;;;;;;14.88;5.07;;;;;;;;;;5023199;28;20058;-61
2021/01/16 03:11:39;;;;;;;12.77;5.72;;;;;;;;;;5019678;28;20096;-61
2021/01/16 03:14:06;;;;;;;13.75;5.60;;;;;;;;;;5023068;28;20056;-62
2021/01/16 03:16:35;;;;;;;15.27;5.60;;;;;;;;;;5022742;28;20046;-61
2021/01/16 03:19:02;;;;;;;16.73;5.95;;;;;;;;;;5022652;28;20048;-61
2021/01/16 03:21:29;;;;;;;13.55;5.03;;;;;;;;;;5023173;28;20053;-61
2021/01/16 03:23:55;;;;;;;14.80;5.60;;;;;;;;;;5018529;28;20046;-62
2021/01/16 03:26:21;;;;;;;15.30;5.63;;;;;;;;;;5022607;28;20057;-61
2021/01/16 03:28:47;;;;;;;15.15;5.10;;;;;;;;;;5020052;28;20042;-61
2021/01/16 03:31:13;;;;;;;15.25;5.90;;;;;;;;;;5023548;28;20041;-61
2021/01/16 03:33:40;;;;;;;15.63;5.97;;;;;;;;;;5017952;28;20033;-62
2021/01/16 03:36:06;;;;;;;11.93;5.18;;;;;;;;;;5022938;28;20076;-61
2021/01/16 03:38:32;;;;;;;14.50;5.50;;;;;;;;;;5019324;28;20045;-61
2021/01/16 03:40:59;;;;;;;12.07;5.13;;;;;;;;;;5024192;28;20041;-61
2021/01/16 03:43:25;;;;;;;13.90;5.43;;;;;;;;;;5020647;28;20034;-62
2021/01/16 03:45:51;;;;;;;12.38;5.13;;;;;;;;;;5023182;28;20082;-61
2021/01/16 03:48:16;;;;;;;14.70;5.45;;;;;;;;;;5019606;28;20033;-61
2021/01/16 03:50:43;;;;;;;17.52;6.18;;;;;;;;;;5022741;28;20041;-61
2021/01/16 03:53:10;;;;;;;17.65;6.57;;;;;;;;;;5019367;28;20049;-61
2021/01/16 03:55:36;;;;;;;16.42;5.93;;;;;;;;;;5023152;28;20054;-61
2021/01/16 03:58:04;;;;;;;14.27;5.75;;;;;;;;;;5021763;28;20051;-61
2021/01/16 04:00:31;;;;;;;12.35;5.22;;;;;;;;;;5018946;28;20034;-61
2021/01/16 04:02:57;;;;;;;14.48;5.57;;;;;;;;;;5021991;28;20172;-61
2021/01/16 04:05:23;;;;;;;15.82;5.97;;;;;;;;;;5014789;28;20042;-62
2021/01/16 04:07:50;;;;;;;15.45;6.60;;;;;;;;;;5001032;28;20038;-61
2021/01/16 04:10:16;;;;;;;15.25;5.00;;;;;;;;;;5011747;28;20048;-61
2021/01/16 04:12:42;;;;;;;12.40;5.05;;;;;;;;;;5022249;28;20025;-61
2021/01/16 04:15:09;;;;;;;12.52;5.35;;;;;;;;;;5019218;28;20048;-61
2021/01/16 04:17:37;;;;;;;17.58;6.00;;;;;;;;;;5021717;28;20275;-61
2021/01/16 04:20:04;;;;;;;;;;;;;;;;;;5019936;28;20049;-61
2021/01/16 04:22:30;;;;;;;12.43;4.68;;;;;;;;;;5037126;28;19968;-61
2021/01/16 04:24:57;;;;;;;15.65;5.70;;;;;;;;;;5018894;28;20042;-61
2021/01/16 04:27:23;;;;;;;15.93;5.63;;;;;;;;;;5022240;28;20123;-61
2021/01/16 04:29:49;;;;;;;13.82;5.18;;;;;;;;;;5017977;28;20057;-61
2021/01/16 04:32:15;;;;;;;16.40;6.22;;;;;;;;;;5022793;28;20038;-61
2021/01/16 04:34:41;;;;;;;17.42;5.88;;;;;;;;;;5019687;28;20107;-61
2021/01/16 04:37:07;;;;;;;17.77;6.07;;;;;;;;;;5022472;28;20056;-60
2021/01/16 04:39:33;;;;;;;15.02;5.53;;;;;;;;;;5021562;28;20127;-60
2021/01/16 04:42:02;;;;;;;16.10;5.88;;;;;;;;;;5016512;28;20049;-60
2021/01/16 04:44:28;;;;;;;;;;;;;;;;;;5035667;28;20042;-61
2021/01/16 04:46:57;;;;;;;14.13;5.05;;;;;;;;;;5034603;28;19932;-60
2021/01/16 04:49:24;;;;;;;20.52;6.95;;;;;;;;;;5021160;28;20049;-61
2021/01/16 04:51:53;;;;;;;15.90;6.20;;;;;;;;;;5017390;28;20030;-61
2021/01/16 04:54:19;;;;;;;15.80;5.72;;;;;;;;;;5023123;28;20041;-62
2021/01/16 04:56:46;;;;;;;15.77;6.72;;;;;;;;;;5017203;28;20083;-62
2021/01/16 04:59:15;;;;;;;15.30;5.85;;;;;;;;;;5021448;28;20057;-62
2021/01/16 05:01:41;;;;;;;13.15;5.38;;;;;;;;;;5018324;28;20041;-62
2021/01/16 05:04:08;;;;;;;14.57;5.57;;;;;;;;;;5021700;28;20075;-61
2021/01/16 05:06:38;;;;;;;21.23;5.88;;;;;;;;;;5020607;28;20054;-62
2021/01/16 05:09:05;;;;;;;13.82;5.68;;;;;;;;;;5023347;28;20045;-62
2021/01/16 05:11:39;;;;;;;16.80;6.70;;;;;;;;;;5017058;28;20037;-61
2021/01/16 05:14:10;;;;;;;14.52;5.68;;;;;;;;;;5021767;28;20046;-61
2021/01/16 05:16:44;;;;;;;16.80;6.80;;;;;;;;;;5017348;28;20045;-61
2021/01/16 05:19:12;;;;;;;13.38;5.10;;;;;;;;;;5021900;28;20050;-61
2021/01/16 05:21:38;;;;;;;14.98;4.88;;;;;;;;;;5017147;28;20090;-61
2021/01/16 05:24:05;;;;;;;13.07;5.47;;;;;;;;;;5021455;28;20045;-60
2021/01/16 05:26:33;;;;;;;16.83;5.70;;;;;;;;;;5020104;28;20053;-61
2021/01/16 05:29:00;;;;;;;16.17;6.18;;;;;;;;;;5017602;28;20052;-61
2021/01/16 05:31:26;;;;;;;17.15;6.05;;;;;;;;;;5022583;28;20054;-61
2021/01/16 05:33:53;;;;;;;13.52;5.50;;;;;;;;;;5018783;28;20104;-61
2021/01/16 05:36:18;;;;;;;15.80;6.40;;;;;;;;;;5023624;28;20049;-61
2021/01/16 05:38:46;;;;;;;13.80;5.72;;;;;;;;;;5020480;28;20053;-61
2021/01/16 05:41:13;;;;;;;13.43;6.05;;;;;;;;;;5024430;28;20049;-60
2021/01/16 05:43:40;;;;;;;13.13;5.70;;;;;;;;;;5022693;28;20045;-61
2021/01/16 05:46:09;;;;;;;15.55;5.80;;;;;;;;;;5024195;28;20034;-60
2021/01/16 05:48:35;;;;;;;16.92;6.10;;;;;;;;;;5019733;28;20042;-61
2021/01/16 05:51:03;;;;;;;18.27;6.25;;;;;;;;;;5024132;28;20077;-61
2021/01/16 05:53:29;;;;;;;16.45;6.68;;;;;;;;;;5016535;28;20042;-60
2021/01/16 05:55:55;;;;;;;14.88;6.32;;;;;;;;;;5004573;28;20095;-60
2021/01/16 05:58:21;;;;;;;16.83;5.57;;;;;;;;;;5005182;28;20037;-61
2021/01/16 06:00:48;;;;;;;16.48;6.00;;;;;;;;;;5023642;28;20049;-61
2021/01/16 06:03:15;;;;;;;14.40;5.95;;;;;;;;;;5020422;28;20050;-60
2021/01/16 06:05:46;;;;;;;15.10;6.18;;;;;;;;;;5022867;28;20045;-61
2021/01/16 06:08:13;;;;;;;16.10;5.47;;;;;;;;;;5024660;28;20049;-62
2021/01/16 06:10:39;;;;;;;13.45;5.55;;;;;;;;;;5019290;28;20050;-61
2021/01/16 06:13:12;;;;;;;13.73;5.30;;;;;;;;;;5024264;28;20046;-61
2021/01/16 06:15:41;;;;;;;13.27;5.18;;;;;;;;;;5021615;28;20045;-61
2021/01/16 06:18:11;;;;;;;15.02;5.50;;;;;;;;;;5023975;28;20049;-61
2021/01/16 06:20:39;;;;;;;12.38;5.30;;;;;;;;;;5020789;28;20049;-61
2021/01/16 06:23:11;;;;;;;13.68;5.60;;;;;;;;;;5024428;28;20058;-61
2021/01/16 06:25:39;;;;;;;11.82;4.90;;;;;;;;;;5020362;28;20037;-60
2021/01/16 06:28:07;;;;;;;14.13;5.63;;;;;;;;;;5023694;28;20038;-61
2021/01/16 06:30:36;;;;;;;;;;;;;;;;;;5022929;28;20037;-61
2021/01/16 06:33:04;;;;;;;13.25;4.93;;;;;;;;;;5041067;28;19929;-61
2021/01/16 06:35:30;;;;;;;;;;;;;;;;;;5020546;28;20037;-60
2021/01/16 06:37:56;;;;;;;9.70;4.13;;;;;;;;;;5022149;28;19921;-61
2021/01/16 06:40:32;;;;;;;16.15;5.47;;;;;;;;;;5020241;28;20038;-61
2021/01/16 06:42:59;;;;;;;14.68;5.60;;;;;;;;;;5025833;28;20041;-61
2021/01/16 06:45:27;;;;;;;16.08;5.88;;;;;;;;;;5006513;28;20037;-61
2021/01/16 06:47:56;;;;;;;14.93;5.55;;;;;;;;;;5021825;28;20033;-61
2021/01/16 06:50:23;;;;;;;15.70;5.78;;;;;;;;;;5020485;28;20045;-61
2021/01/16 06:52:49;;;;;;;15.77;5.60;;;;;;;;;;5023472;28;20070;-60
2021/01/16 06:55:17;;;;;;;13.95;5.50;;;;;;;;;;5019880;28;20192;-61
2021/01/16 06:57:43;;;;;;;11.40;5.50;;;;;;;;;;5023528;28;20041;-61
2021/01/16 07:00:11;;;;;;;16.52;5.47;;;;;;;;;;5023548;28;20038;-60
2021/01/16 07:02:37;;;;;;;13.93;5.47;;;;;;;;;;5018820;28;20049;-61
2021/01/16 07:05:04;;;;;;;13.77;5.97;;;;;;;;;;5023156;28;20053;-61
2021/01/16 07:07:31;;;;;;;17.02;6.03;;;;;;;;;;5020033;28;20085;-61
2021/01/16 07:10:01;;;;;;;15.30;5.65;;;;;;;;;;5023607;28;20045;-61
2021/01/16 07:12:28;;;;;;;15.48;4.97;;;;;;;;;;5019081;28;20061;-61
2021/01/16 07:14:54;;;;;;;17.50;6.63;;;;;;;;;;5021624;28;20037;-61
2021/01/16 07:17:23;;;;;;;11.55;4.80;;;;;;;;;;5019724;28;20054;-61
2021/01/16 07:19:49;;;;;;;14.25;5.38;;;;;;;;;;5023948;28;20127;-61
2021/01/16 07:22:15;;;;;;;12.40;5.25;;;;;;;;;;5019600;28;20041;-61
2021/01/16 07:24:41;;;;;;;16.63;6.65;;;;;;;;;;5025613;28;20127;-61
2021/01/16 07:27:09;;;;;;;15.50;6.07;;;;;;;;;;5018475;28;20131;-61
2021/01/16 07:29:38;;;;;;;14.07;6.07;;;;;;;;;;5022172;28;20041;-61
2021/01/16 07:32:07;;;;;;;14.38;5.57;;;;;;;;;;5018422;28;20362;-61
2021/01/16 07:34:33;;;;;;;13.10;5.47;;;;;;;;;;5023539;28;20042;-61
2021/01/16 07:37:01;;;;;;;14.90;5.90;;;;;;;;;;5019716;28;20038;-61
2021/01/16 07:39:28;;;;;;;15.32;5.78;;;;;;;;;;5023226;28;20049;-61
2021/01/16 07:41:58;;;;;;;14.27;5.50;;;;;;;;;;5020994;28;20033;-61
2021/01/16 07:44:31;;;;;;;15.75;6.10;;;;;;;;;;5020964;28;20033;-61
2021/01/16 07:47:00;;;;;;;13.85;6.07;;;;;;;;;;5021634;28;20127;-61
2021/01/16 07:49:27;;;;;;;17.05;6.35;;;;;;;;;;5018185;28;20038;-60
2021/01/16 07:51:55;;;;;;;13.73;5.50;;;;;;;;;;5023965;28;20045;-62
2021/01/16 07:54:22;;;;;;;17.65;7.38;;;;;;;;;;5021068;28;20052;-61
2021/01/16 07:56:58;;;;;;;18.80;5.70;;;;;;;;;;5021496;28;20056;-61
2021/01/16 07:59:31;;;;;;;16.13;6.45;;;;;;;;;;5016908;28;20053;-61
2021/01/16 08:02:18;;;;;;;15.65;5.85;;;;;;;;;;5021140;28;20034;-61
2021/01/16 08:04:49;;;;;;;17.70;6.82;;;;;;;;;;5016752;28;20042;-61
2021/01/16 08:07:19;;;;;;;16.90;6.60;;;;;;;;;;5039030;28;20052;-61
2021/01/16 08:09:53;;;;;;;12.15;4.95;;;;;;;;;;5016074;28;20048;-61
2021/01/16 08:12:19;;;;;;;13.85;4.40;;;;;;;;;;4998163;28;20106;-60
2021/01/16 08:14:45;;;;;;;13.65;5.60;;;;;;;;;;4991849;28;20121;-61
2021/01/16 08:17:13;;;;;;;12.77;4.85;;;;;;;;;;5012225;28;20050;-61
2021/01/16 08:19:47;;;;;;;16.30;6.45;;;;;;;;;;4993502;28;20081;-61
2021/01/16 08:22:15;;;;;;;13.93;5.85;;;;;;;;;;4997211;28;20057;-61
2021/01/16 08:24:55;;;;;;;11.63;4.63;;;;;;;;;;4997772;28;20044;-61
2021/01/16 08:27:23;;;;;;;13.90;5.78;;;;;;;;;;5036890;28;20042;-60
2021/01/16 08:29:49;;;;;;;16.83;6.35;;;;;;;;;;5018692;28;20168;-60
2021/01/16 08:32:15;;;;;;;11.25;4.40;;;;;;;;;;5021505;28;20045;-60
2021/01/16 08:34:48;;;;;;;16.02;6.00;;;;;;;;;;5018523;28;20088;-61
2021/01/16 08:37:25;;;;;;;17.60;5.68;;;;;;;;;;5021168;28;20038;-61
2021/01/16 08:39:52;;;;;;;19.65;5.97;;;;;;;;;;5018250;28;20122;-61
2021/01/16 08:42:24;;;;;;;16.85;6.35;;;;;;;;;;5021425;28;20152;-60
2021/01/16 08:44:51;;;;;;;17.85;6.60;;;;;;;;;;5017396;28;20056;-61
2021/01/16 08:47:17;;;;;;;18.90;6.75;;;;;;;;;;5038895;28;20120;-60
2021/01/16 08:49:43;;;;;;;19.73;6.10;;;;;;;;;;5015380;28;20099;-61
2021/01/16 08:52:09;;;;;;;16.38;6.03;;;;;;;;;;5020940;28;20046;-61
2021/01/16 08:54:36;;;;;;;16.35;5.20;;;;;;;;;;5020506;28;20045;-61
2021/01/16 08:57:14;;;;;;;17.27;6.00;;;;;;;;;;5018124;28;20060;-61
2021/01/16 08:59:40;;;;;;;18.00;6.30;;;;;;;;;;5021365;28;20045;-61
2021/01/16 09:02:07;;;;;;;15.52;6.20;;;;;;;;;;5019090;28;20097;-61
2021/01/16 09:04:33;;;;;;;15.25;5.95;;;;;;;;;;5021972;28;20042;-61
2021/01/16 09:07:12;;;;;;;17.02;6.43;;;;;;;;;;5016676;28;20049;-60
2021/01/16 09:09:38;;;;;;;21.40;7.13;;;;;;;;;;5021975;28;20056;-61
2021/01/16 09:12:06;;;;;;;16.45;5.38;;;;;;;;;;5017184;28;20121;-61
2021/01/16 09:14:32;;;;;;;15.25;6.55;;;;;;;;;;5022058;28;20037;-61
2021/01/16 09:17:13;;;;;;;16.20;6.57;;;;;;;;;;5018383;28;20073;-62
2021/01/16 09:19:39;;;;;;;17.75;5.57;;;;;;;;;;5022121;28;20044;-60
2021/01/16 09:22:19;;;;;;;16.52;6.03;;;;;;;;;;5017747;28;20034;-61
2021/01/16 09:24:45;;;;;;;16.75;6.25;;;;;;;;;;5021433;28;20160;-61
2021/01/16 09:27:21;;;;;;;16.52;6.25;;;;;;;;;;4996527;28;20069;-60
2021/01/16 09:29:48;;;;;;;14.77;5.85;;;;;;;;;;5000525;28;20102;-61
2021/01/16 09:32:27;;;;;;;21.23;6.97;;;;;;;;;;4997321;28;20037;-61
2021/01/16 09:34:53;;;;;;;14.73;5.97;;;;;;;;;;5001731;28;20049;-61
2021/01/16 09:37:23;;;;;;;19.40;6.65;;;;;;;;;;4990796;28;20054;-61
2021/01/16 09:39:59;;;;;;;19.20;6.97;;;;;;;;;;4981198;28;20043;-61
2021/01/16 09:42:25;;;;;;;17.60;6.88;;;;;;;;;;4986039;28;20035;-60
2021/01/16 09:44:53;;;;;;;15.70;6.97;;;;;;;;;;4998613;28;20042;-60
2021/01/16 09:47:38;;;;;;;16.70;6.82;;;;;;;;;;4994645;28;20043;-60
2021/01/16 09:50:10;;;;;;;19.05;6.93;;;;;;;;;;4980958;28;20056;-60
2021/01/16 09:52:43;;;;;;;18.48;6.82;;;;;;;;;;4997920;28;20050;-61
2021/01/16 09:55:15;;;;;;;19.23;7.15;;;;;;;;;;5012217;28;20053;-61
2021/01/16 09:57:42;;;;;;;17.88;7.53;;;;;;;;;;5017169;28;20138;-61
2021/01/16 10:00:10;;;;;;;17.20;6.75;;;;;;;;;;5020905;28;20057;-61
2021/01/16 10:02:38;;;;;;;22.65;7.55;;;;;;;;;;5017093;28;20049;-61
2021/01/16 10:05:06;;;;;;;20.27;7.00;;;;;;;;;;5018813;28;20065;-61
2021/01/16 10:07:38;;;;;;;16.15;6.78;;;;;;;;;;5019521;28;20041;-61
2021/01/16 10:10:14;;;;;;;13.93;6.05;;;;;;;;;;5018396;28;20057;-61
2021/01/16 10:12:41;;;;;;;20.33;7.13;;;;;;;;;;5021587;28;20058;-60
2021/01/16 10:15:08;;;;;;;23.70;7.95;;;;;;;;;;5016411;28;20151;-60
2021/01/16 10:17:35;;;;;;;17.77;6.80;;;;;;;;;;5020395;28;20041;-60
2021/01/16 10:20:06;;;;;;;17.35;7.35;;;;;;;;;;5017232;28;20038;-61
2021/01/16 10:22:33;;;;;;;19.23;7.60;;;;;;;;;;5039037;28;20053;-61
2021/01/16 10:24:59;;;;;;;19.00;7.78;;;;;;;;;;5020589;28;20045;-60
2021/01/16 10:27:42;;;;;;;17.40;7.43;;;;;;;;;;5023399;28;20052;-60
2021/01/16 10:30:14;;;;;;;19.92;8.15;;;;;;;;;;5015723;28;20050;-60
2021/01/16 10:32:41;;;;;;;20.23;7.50;;;;;;;;;;5002839;28;20050;-60
2021/01/16 10:35:08;;;;;;;20.05;7.15;;;;;;;;;;5011822;28;20030;-61
2021/01/16 10:37:40;;;;;;;23.10;7.93;;;;;;;;;;5024001;28;20037;-61
2021/01/16 10:40:08;;;;;;;19.55;7.75;;;;;;;;;;5020565;28;20050;-61
2021/01/16 10:42:41;;;;;;;18.55;7.18;;;;;;;;;;5025679;28;20045;-60
2021/01/16 10:45:08;;;;;;;19.58;7.47;;;;;;;;;;5019961;28;20038;-60
2021/01/16 10:47:35;;;;;;;18.50;6.95;;;;;;;;;;5024049;28;20123;-61
2021/01/16 10:50:05;;;;;;;18.30;7.13;;;;;;;;;;5020020;28;20037;-61
2021/01/16 10:52:31;;;;;;;17.98;7.85;;;;;;;;;;5024410;28;20053;-61
2021/01/16 10:54:58;;;;;;;21.17;7.03;;;;;;;;;;5019554;28;20081;-60
2021/01/16 10:57:26;;;;;;;16.77;6.15;;;;;;;;;;5025225;28;20144;-61
2021/01/16 10:59:54;;;;;;;19.70;7.63;;;;;;;;;;5022021;28;20128;-60
2021/01/16 11:02:37;;;;;;;18.65;7.35;;;;;;;;;;5023626;28;20046;-61
2021/01/16 11:05:17;;;;;;;20.25;7.55;;;;;;;;;;5019396;28;20045;-60
2021/01/16 11:07:43;;;;;;;18.27;7.25;;;;;;;;;;5023614;28;20056;-61
2021/01/16 11:10:10;;;;;;;15.20;6.43;;;;;;;;;;5019197;28;20056;-61
2021/01/16 11:12:36;;;;;;;23.70;7.80;;;;;;;;;;5022544;28;20082;-60
2021/01/16 11:15:21;;;;;;;20.70;7.80;;;;;;;;;;5024760;28;20045;-60
2021/01/16 11:17:48;;;;;;;18.20;7.22;;;;;;;;;;5003466;28;20096;-61
2021/01/16 11:20:20;;;;;;;24.38;7.00;;;;;;;;;;4986709;28;20042;-61
2021/01/16 11:22:48;;;;;;;18.27;7.03;;;;;;;;;;5018689;28;20053;-60
2021/01/16 11:25:14;;;;;;;;;;;;;;;;;;5023603;28;20119;-60
2021/01/16 11:28:03;;;;;;;18.25;6.32;;;;;;;;;;5017251;28;19932;-61
2021/01/16 11:30:29;;;;;;;;;;;;;;;;;;5022404;28;20061;-60
2021/01/16 11:33:10;;;;;;;13.23;5.93;;;;;;;;;;5020135;28;19939;-61
2021/01/16 11:35:39;;;;;;;16.40;6.18;;;;;;;;;;5058434;28;22991;-61
2021/01/16 11:38:05;;;;;;;15.45;6.18;;;;;;;;;;5021947;28;20059;-61
2021/01/16 11:40:32;;;;;;;14.88;5.82;;;;;;;;;;5022643;28;20030;-61
2021/01/16 11:42:58;;;;;;;18.90;6.25;;;;;;;;;;5017603;28;20060;-60
2021/01/16 11:45:25;;;;;;;14.88;6.18;;;;;;;;;;5022899;28;20056;-60
2021/01/16 11:47:52;;;;;;;14.95;5.63;;;;;;;;;;5010822;28;20143;-61
2021/01/16 11:50:20;;;;;;;13.45;6.00;;;;;;;;;;5022913;28;20164;-61
2021/01/16 11:52:48;;;;;;;12.75;4.88;;;;;;;;;;5018591;28;20038;-60
2021/01/16 11:55:14;;;;;;;13.50;5.15;;;;;;;;;;5022634;28;20049;-60
2021/01/16 11:57:42;;;;;;;13.75;5.38;;;;;;;;;;5020149;28;20050;-61
2021/01/16 12:00:10;;;;;;;14.43;5.38;;;;;;;;;;5021755;28;20049;-60
2021/01/16 12:02:36;;;;;;;14.27;4.68;;;;;;;;;;5020380;28;20030;-61
2021/01/16 12:05:02;;;;;;;12.02;4.95;;;;;;;;;;5024269;28;20048;-61
2021/01/16 12:07:30;;;;;;;14.43;5.18;;;;;;;;;;5020587;28;20104;-61
2021/01/16 12:09:58;;;;;;;17.40;5.85;;;;;;;;;;5022264;28;20139;-60
2021/01/16 12:12:29;;;;;;;14.55;6.20;;;;;;;;;;5021770;28;20139;-60
2021/01/16 12:14:55;;;;;;;15.57;5.07;;;;;;;;;;5020942;28;20030;-60
2021/01/16 12:17:22;;;;;;;12.77;4.95;;;;;;;;;;5023531;28;20042;-60
2021/01/16 12:19:49;;;;;;;14.45;4.93;;;;;;;;;;5019838;28;20057;-60
2021/01/16 12:22:16;;;;;;;14.18;4.80;;;;;;;;;;5022091;28;20046;-61
2021/01/16 12:24:45;;;;;;;11.13;4.72;;;;;;;;;;5017697;28;20059;-60
2021/01/16 12:27:12;;;;;;;15.52;4.10;;;;;;;;;;5021293;28;20046;-61
2021/01/16 12:29:40;;;;;;;10.85;4.47;;;;;;;;;;5018361;28;20049;-61
2021/01/16 12:32:07;;;;;;;10.45;4.43;;;;;;;;;;5022107;28;20112;-61
2021/01/16 12:34:36;;;;;;;11.98;3.97;;;;;;;;;;5018787;28;20138;-60
2021/01/16 12:37:03;;;;;;;22.80;5.50;;;;;;;;;;5022149;28;20042;-61
2021/01/16 12:39:29;;;;;;;13.55;5.25;;;;;;;;;;5019289;28;20049;-61
2021/01/16 12:41:59;;;;;;;13.32;5.05;;;;;;;;;;5020849;28;20075;-61
2021/01/16 12:44:26;;;;;;;13.80;4.35;;;;;;;;;;5017540;28;20038;-61
2021/01/16 12:46:52;;;;;;;10.02;3.92;;;;;;;;;;5022117;28;20056;-61
2021/01/16 12:49:19;;;;;;;11.00;4.85;;;;;;;;;;5018927;28;20090;-61
2021/01/16 12:51:47;;;;;;;13.70;5.20;;;;;;;;;;5021579;28;20068;-61
2021/01/16 12:54:17;;;;;;;19.38;5.70;;;;;;;;;;5017613;28;20045;-61
2021/01/16 12:56:43;;;;;;;11.63;4.63;;;;;;;;;;5022534;28;20042;-61
2021/01/16 12:59:13;;;;;;;16.15;5.10;;;;;;;;;;5022128;28;20099;-60
2021/01/16 13:01:40;;;;;;;14.40;4.70;;;;;;;;;;5018811;28;20053;-61
2021/01/16 13:04:08;;;;;;;13.88;5.28;;;;;;;;;;5021480;28;20034;-60
2021/01/16 13:06:36;;;;;;;9.93;3.92;;;;;;;;;;5016844;28;20049;-61
2021/01/16 13:09:02;;;;;;;13.27;5.30;;;;;;;;;;5021737;28;20049;-61
2021/01/16 13:11:29;;;;;;;13.00;4.07;;;;;;;;;;5017771;28;20036;-61
2021/01/16 13:13:55;;;;;;;11.30;4.45;;;;;;;;;;5022100;28;20060;-61
2021/01/16 13:16:23;;;;;;;12.90;4.15;;;;;;;;;;5018351;28;20041;-61
2021/01/16 13:18:51;;;;;;;8.88;3.60;;;;;;;;;;5022080;28;20044;-61
2021/01/16 13:21:26;;;;;;;8.70;3.50;;;;;;;;;;5019153;28;20119;-60
2021/01/16 13:23:53;;;;;;;15.98;4.15;;;;;;;;;;5020677;28;20042;-61
2021/01/16 13:26:19;;;;;;;10.38;4.22;;;;;;;;;;5018152;28;20034;-61
2021/01/16 13:28:46;;;;;;;12.40;4.30;;;;;;;;;;5023097;28;20048;-61
2021/01/16 13:31:15;;;;;;;11.60;4.28;;;;;;;;;;5018176;28;20053;-61
2021/01/16 13:33:40;;;;;;;;;;;;;;;;;;5022096;28;20100;-61
2021/01/16 13:36:12;;;;;;;7.70;2.72;;;;;;;;;;5032648;28;19972;-61
2021/01/16 13:38:41;;;;;;;8.88;3.50;;;;;;;;;;5017916;28;20078;-61
2021/01/16 13:41:08;;;;;;;10.45;3.70;;;;;;;;;;5016148;28;20041;-60
2021/01/16 13:43:38;;;;;;;9.15;3.55;;;;;;;;;;5020821;28;20050;-61
2021/01/16 13:46:05;;;;;;;7.53;3.40;;;;;;;;;;5019668;28;20049;-61
2021/01/16 13:48:38;;;;;;;9.55;3.08;;;;;;;;;;5019621;28;20042;-61
2021/01/16 13:51:19;;;;;;;9.68;3.67;;;;;;;;;;5021059;28;20034;-60
2021/01/16 13:53:51;;;;;;;9.90;3.67;;;;;;;;;;5016869;28;20041;-61
2021/01/16 13:56:17;;;;;;;11.20;4.25;;;;;;;;;;5021105;28;20038;-60
2021/01/16 13:58:43;;;;;;;12.25;4.25;;;;;;;;;;5021251;28;20053;-60
2021/01/16 14:01:09;;;;;;;12.45;4.80;;;;;;;;;;5024573;28;20049;-61
2021/01/16 14:03:35;;;;;;;9.73;3.92;;;;;;;;;;5019255;28;20048;-61
2021/01/16 14:06:01;;;;;;;10.18;3.60;;;;;;;;;;5023050;28;20049;-61
2021/01/16 14:08:29;;;;;;;12.05;3.75;;;;;;;;;;5029152;28;20131;-61
2021/01/16 14:11:00;;;;;;;12.50;3.88;;;;;;;;;;5023681;28;20034;-60
2021/01/16 14:13:34;;;;;;;8.02;3.33;;;;;;;;;;5020392;28;20038;-60
2021/01/16 14:16:03;;;;;;;9.70;4.28;;;;;;;;;;5022816;28;20037;-60
2021/01/16 14:18:30;;;;;;;11.07;3.78;;;;;;;;;;5020180;28;20034;-61
2021/01/16 14:20:58;;;;;;;10.10;3.40;;;;;;;;;;5023636;28;20152;-60
2021/01/16 14:23:27;;;;;;;9.10;3.60;;;;;;;;;;5021559;28;20045;-60
2021/01/16 14:25:53;;;;;;;11.98;4.47;;;;;;;;;;5025586;28;20034;-60
2021/01/16 14:28:26;;;;;;;10.70;4.00;;;;;;;;;;5022961;28;20026;-60
2021/01/16 14:30:53;;;;;;;10.48;3.47;;;;;;;;;;5024517;28;20061;-60
2021/01/16 14:33:19;;;;;;;13.20;4.32;;;;;;;;;;5020721;28;20049;-61
2021/01/16 14:35:45;;;;;;;13.15;4.95;;;;;;;;;;5026189;28;20044;-60
2021/01/16 14:38:13;;;;;;;6.50;2.20;;;;;;;;;;5023320;28;20049;-61
2021/01/16 14:40:41;;;;;;;9.20;3.38;;;;;;;;;;5007046;28;20078;-61